sensor_id;sensor_type;location;lat;lon;timestamp;temperature;humidity
46366;DHT22;32073;49.166;8.076;2023-03-14T00:02:19;14.30;63.50
46366;DHT22;32073;49.166;8.076;2023-03-14T00:06:19;14.30;63.60
46366;DHT22;32073;49.166;8.076;2023-03-14T00:10:21;14.30;63.70
46366;DHT22;32073;49.166;8.076;2023-03-14T00:14:21;14.30;63.80
46366;DHT22;32073;49.166;8.076;2023-03-14T00:18:22;14.30;63.80
46366;DHT22;32073;49.166;8.076;2023-03-14T00:22:23;14.30;63.90
46366;DHT22;32073;49.166;8.076;2023-03-14T00:26:24;14.50;64.00
46366;DHT22;32073;49.166;8.076;2023-03-14T00:30:25;14.40;63.90
46366;DHT22;32073;49.166;8.076;2023-03-14T00:34:29;14.40;63.90
46366;DHT22;32073;49.166;8.076;2023-03-14T00:38:31;14.40;64.00
46366;DHT22;32073;49.166;8.076;2023-03-14T00:42:33;14.50;63.90
46366;DHT22;32073;49.166;8.076;2023-03-14T00:46:33;14.50;64.00
46366;DHT22;32073;49.166;8.076;2023-03-14T00:50:34;14.50;64.10
46366;DHT22;32073;49.166;8.076;2023-03-14T00:54:35;14.50;64.10
46366;DHT22;32073;49.166;8.076;2023-03-14T00:58:37;14.50;64.30
46366;DHT22;32073;49.166;8.076;2023-03-14T01:02:38;14.40;64.30
46366;DHT22;32073;49.166;8.076;2023-03-14T01:06:39;14.50;64.30
46366;DHT22;32073;49.166;8.076;2023-03-14T01:10:40;14.50;64.30
46366;DHT22;32073;49.166;8.076;2023-03-14T01:14:41;14.50;64.40
46366;DHT22;32073;49.166;8.076;2023-03-14T01:18:43;14.40;64.30
46366;DHT22;32073;49.166;8.076;2023-03-14T01:22:44;14.50;64.40
46366;DHT22;32073;49.166;8.076;2023-03-14T01:26:45;14.50;64.40
46366;DHT22;32073;49.166;8.076;2023-03-14T01:30:46;14.50;64.40
46366;DHT22;32073;49.166;8.076;2023-03-14T01:34:47;14.50;64.50
46366;DHT22;32073;49.166;8.076;2023-03-14T01:38:48;14.40;64.60
46366;DHT22;32073;49.166;8.076;2023-03-14T01:43:04;14.40;64.60
46366;DHT22;32073;49.166;8.076;2023-03-14T01:47:12;14.40;65.10
46366;DHT22;32073;49.166;8.076;2023-03-14T01:51:21;14.40;65.20
46366;DHT22;32073;49.166;8.076;2023-03-14T01:55:34;14.40;64.40
46366;DHT22;32073;49.166;8.076;2023-03-14T01:59:37;14.30;64.50
46366;DHT22;32073;49.166;8.076;2023-03-14T02:03:46;14.30;64.60
46366;DHT22;32073;49.166;8.076;2023-03-14T02:07:53;14.30;64.90
46366;DHT22;32073;49.166;8.076;2023-03-14T02:11:56;14.20;64.60
46366;DHT22;32073;49.166;8.076;2023-03-14T02:15:56;14.20;64.70
46366;DHT22;32073;49.166;8.076;2023-03-14T02:20:19;14.20;64.80
46366;DHT22;32073;49.166;8.076;2023-03-14T02:28:44;14.20;65.20
46366;DHT22;32073;49.166;8.076;2023-03-14T02:32:52;14.30;64.40
46366;DHT22;32073;49.166;8.076;2023-03-14T02:36:55;14.10;64.50
46366;DHT22;32073;49.166;8.076;2023-03-14T02:40:56;14.00;64.40
46366;DHT22;32073;49.166;8.076;2023-03-14T02:49:21;13.90;64.90
46366;DHT22;32073;49.166;8.076;2023-03-14T02:53:25;13.90;64.60
46366;DHT22;32073;49.166;8.076;2023-03-14T02:57:30;13.90;65.40
46366;DHT22;32073;49.166;8.076;2023-03-14T03:01:31;13.90;64.60
46366;DHT22;32073;49.166;8.076;2023-03-14T03:05:32;13.80;64.70
46366;DHT22;32073;49.166;8.076;2023-03-14T03:09:33;13.80;64.60
46366;DHT22;32073;49.166;8.076;2023-03-14T03:13:34;13.90;64.60
46366;DHT22;32073;49.166;8.076;2023-03-14T03:17:35;13.80;64.40
46366;DHT22;32073;49.166;8.076;2023-03-14T03:21:36;13.80;64.30
46366;DHT22;32073;49.166;8.076;2023-03-14T03:25:36;13.70;64.20
46366;DHT22;32073;49.166;8.076;2023-03-14T03:29:37;13.70;64.30
46366;DHT22;32073;49.166;8.076;2023-03-14T03:33:38;13.70;64.20
46366;DHT22;32073;49.166;8.076;2023-03-14T03:37:39;13.70;64.10
46366;DHT22;32073;49.166;8.076;2023-03-14T03:41:39;13.60;64.00
46366;DHT22;32073;49.166;8.076;2023-03-14T03:45:40;13.60;64.00
46366;DHT22;32073;49.166;8.076;2023-03-14T03:49:41;13.60;64.00
46366;DHT22;32073;49.166;8.076;2023-03-14T03:53:42;13.50;64.00
46366;DHT22;32073;49.166;8.076;2023-03-14T03:57:43;13.50;64.00
46366;DHT22;32073;49.166;8.076;2023-03-14T04:01:44;13.50;64.00
46366;DHT22;32073;49.166;8.076;2023-03-14T04:05:44;13.40;63.80
46366;DHT22;32073;49.166;8.076;2023-03-14T04:09:45;13.40;63.80
46366;DHT22;32073;49.166;8.076;2023-03-14T04:13:46;13.40;63.70
46366;DHT22;32073;49.166;8.076;2023-03-14T04:17:47;13.40;63.70
46366;DHT22;32073;49.166;8.076;2023-03-14T04:21:47;13.40;63.70
46366;DHT22;32073;49.166;8.076;2023-03-14T04:25:48;13.30;63.80
46366;DHT22;32073;49.166;8.076;2023-03-14T04:29:49;13.30;63.90
46366;DHT22;32073;49.166;8.076;2023-03-14T04:33:49;13.30;64.10
46366;DHT22;32073;49.166;8.076;2023-03-14T04:37:50;13.20;64.10
46366;DHT22;32073;49.166;8.076;2023-03-14T04:41:52;13.30;64.20
46366;DHT22;32073;49.166;8.076;2023-03-14T04:45:57;13.30;64.20
46366;DHT22;32073;49.166;8.076;2023-03-14T04:49:58;13.20;64.20
46366;DHT22;32073;49.166;8.076;2023-03-14T04:53:58;13.20;64.00
46366;DHT22;32073;49.166;8.076;2023-03-14T04:57:59;13.20;64.00
46366;DHT22;32073;49.166;8.076;2023-03-14T05:02:00;13.20;64.00
46366;DHT22;32073;49.166;8.076;2023-03-14T05:06:00;13.20;63.90
46366;DHT22;32073;49.166;8.076;2023-03-14T05:10:01;13.10;63.80
46366;DHT22;32073;49.166;8.076;2023-03-14T05:14:02;13.10;63.80
46366;DHT22;32073;49.166;8.076;2023-03-14T05:18:03;13.00;63.80
46366;DHT22;32073;49.166;8.076;2023-03-14T05:22:04;13.00;63.80
46366;DHT22;32073;49.166;8.076;2023-03-14T05:26:05;13.00;63.80
46366;DHT22;32073;49.166;8.076;2023-03-14T05:30:06;12.90;63.80
46366;DHT22;32073;49.166;8.076;2023-03-14T05:34:07;12.90;63.80
46366;DHT22;32073;49.166;8.076;2023-03-14T05:38:08;12.90;63.80
46366;DHT22;32073;49.166;8.076;2023-03-14T05:42:08;12.90;63.80
46366;DHT22;32073;49.166;8.076;2023-03-14T05:46:09;12.90;63.70
46366;DHT22;32073;49.166;8.076;2023-03-14T05:50:10;12.90;63.80
46366;DHT22;32073;49.166;8.076;2023-03-14T05:54:11;12.90;63.80
46366;DHT22;32073;49.166;8.076;2023-03-14T05:58:11;12.90;63.90
46366;DHT22;32073;49.166;8.076;2023-03-14T06:02:15;13.00;64.00
46366;DHT22;32073;49.166;8.076;2023-03-14T06:06:16;13.00;64.00
46366;DHT22;32073;49.166;8.076;2023-03-14T06:10:24;13.10;64.00
46366;DHT22;32073;49.166;8.076;2023-03-14T06:14:27;13.10;63.80
46366;DHT22;32073;49.166;8.076;2023-03-14T06:18:28;13.20;63.60
46366;DHT22;32073;49.166;8.076;2023-03-14T06:22:29;13.20;63.40
46366;DHT22;32073;49.166;8.076;2023-03-14T06:26:29;13.30;63.40
46366;DHT22;32073;49.166;8.076;2023-03-14T06:30:30;13.30;63.40
46366;DHT22;32073;49.166;8.076;2023-03-14T06:34:31;13.40;63.50
46366;DHT22;32073;49.166;8.076;2023-03-14T06:38:32;13.50;63.40
46366;DHT22;32073;49.166;8.076;2023-03-14T06:42:33;13.50;63.30
46366;DHT22;32073;49.166;8.076;2023-03-14T06:46:33;13.60;63.10
46366;DHT22;32073;49.166;8.076;2023-03-14T06:50:34;13.70;63.10
46366;DHT22;32073;49.166;8.076;2023-03-14T06:54:36;13.80;62.90
46366;DHT22;32073;49.166;8.076;2023-03-14T06:58:36;13.80;62.80
46366;DHT22;32073;49.166;8.076;2023-03-14T07:02:37;13.90;62.80
46366;DHT22;32073;49.166;8.076;2023-03-14T07:06:38;13.90;62.80
46366;DHT22;32073;49.166;8.076;2023-03-14T07:10:39;14.00;62.70
46366;DHT22;32073;49.166;8.076;2023-03-14T07:14:40;14.00;62.70
46366;DHT22;32073;49.166;8.076;2023-03-14T07:18:41;14.10;63.20
46366;DHT22;32073;49.166;8.076;2023-03-14T07:22:41;14.10;62.50
46366;DHT22;32073;49.166;8.076;2023-03-14T07:26:42;14.10;62.20
46366;DHT22;32073;49.166;8.076;2023-03-14T07:30:43;14.20;62.40
46366;DHT22;32073;49.166;8.076;2023-03-14T07:34:46;14.20;62.20
46366;DHT22;32073;49.166;8.076;2023-03-14T07:38:47;14.20;62.10
46366;DHT22;32073;49.166;8.076;2023-03-14T07:42:48;14.20;62.40
46366;DHT22;32073;49.166;8.076;2023-03-14T07:46:49;14.20;62.60
46366;DHT22;32073;49.166;8.076;2023-03-14T07:50:51;14.20;62.50
46366;DHT22;32073;49.166;8.076;2023-03-14T07:54:52;14.30;62.10
46366;DHT22;32073;49.166;8.076;2023-03-14T07:58:53;14.20;62.00
46366;DHT22;32073;49.166;8.076;2023-03-14T08:02:53;14.30;61.90
46366;DHT22;32073;49.166;8.076;2023-03-14T08:06:54;14.30;61.80
46366;DHT22;32073;49.166;8.076;2023-03-14T08:10:54;14.30;61.80
46366;DHT22;32073;49.166;8.076;2023-03-14T08:14:55;14.30;61.90
46366;DHT22;32073;49.166;8.076;2023-03-14T08:18:56;14.40;62.00
46366;DHT22;32073;49.166;8.076;2023-03-14T08:23:01;14.40;62.10
46366;DHT22;32073;49.166;8.076;2023-03-14T08:27:02;14.50;61.70
46366;DHT22;32073;49.166;8.076;2023-03-14T08:31:02;14.50;61.80
46366;DHT22;32073;49.166;8.076;2023-03-14T08:35:04;14.50;61.90
46366;DHT22;32073;49.166;8.076;2023-03-14T08:39:05;14.60;62.00
46366;DHT22;32073;49.166;8.076;2023-03-14T08:43:07;14.60;62.00
46366;DHT22;32073;49.166;8.076;2023-03-14T08:47:08;14.60;62.00
46366;DHT22;32073;49.166;8.076;2023-03-14T08:51:10;14.60;62.00
46366;DHT22;32073;49.166;8.076;2023-03-14T08:55:13;14.70;62.00
46366;DHT22;32073;49.166;8.076;2023-03-14T08:59:13;14.70;62.10
46366;DHT22;32073;49.166;8.076;2023-03-14T09:03:14;14.70;62.20
46366;DHT22;32073;49.166;8.076;2023-03-14T09:07:15;14.80;62.40
46366;DHT22;32073;49.166;8.076;2023-03-14T09:11:16;14.80;62.20
46366;DHT22;32073;49.166;8.076;2023-03-14T09:15:18;14.90;62.10
46366;DHT22;32073;49.166;8.076;2023-03-14T09:19:18;14.90;62.00
46366;DHT22;32073;49.166;8.076;2023-03-14T09:23:19;15.00;61.90
46366;DHT22;32073;49.166;8.076;2023-03-14T09:27:19;15.00;62.40
46366;DHT22;32073;49.166;8.076;2023-03-14T09:31:20;15.10;62.00
46366;DHT22;32073;49.166;8.076;2023-03-14T09:35:21;15.00;62.10
46366;DHT22;32073;49.166;8.076;2023-03-14T09:39:21;15.10;62.20
46366;DHT22;32073;49.166;8.076;2023-03-14T09:43:23;15.20;62.30
46366;DHT22;32073;49.166;8.076;2023-03-14T09:47:26;15.30;62.20
46366;DHT22;32073;49.166;8.076;2023-03-14T09:51:27;15.30;62.30
46366;DHT22;32073;49.166;8.076;2023-03-14T09:55:28;15.40;62.40
46366;DHT22;32073;49.166;8.076;2023-03-14T09:59:29;15.40;62.40
46366;DHT22;32073;49.166;8.076;2023-03-14T10:03:35;15.50;62.50
46366;DHT22;32073;49.166;8.076;2023-03-14T10:07:36;15.60;62.40
46366;DHT22;32073;49.166;8.076;2023-03-14T10:11:36;15.60;62.30
46366;DHT22;32073;49.166;8.076;2023-03-14T10:15:40;15.70;62.70
46366;DHT22;32073;49.166;8.076;2023-03-14T10:20:14;15.70;62.10
46366;DHT22;32073;49.166;8.076;2023-03-14T10:24:30;15.70;62.10
46366;DHT22;32073;49.166;8.076;2023-03-14T10:28:38;15.70;62.20
46366;DHT22;32073;49.166;8.076;2023-03-14T10:32:46;15.70;62.20
46366;DHT22;32073;49.166;8.076;2023-03-14T10:36:52;15.80;62.20
46366;DHT22;32073;49.166;8.076;2023-03-14T10:40:55;15.80;62.00
46366;DHT22;32073;49.166;8.076;2023-03-14T10:44:58;15.70;61.90
46366;DHT22;32073;49.166;8.076;2023-03-14T10:49:05;15.70;61.90
46366;DHT22;32073;49.166;8.076;2023-03-14T10:53:08;15.60;61.80
46366;DHT22;32073;49.166;8.076;2023-03-14T10:57:11;15.60;62.00
46366;DHT22;32073;49.166;8.076;2023-03-14T11:01:16;15.50;62.00
46366;DHT22;32073;49.166;8.076;2023-03-14T11:05:49;15.50;62.20
46366;DHT22;32073;49.166;8.076;2023-03-14T11:14:29;15.30;60.80
46366;DHT22;32073;49.166;8.076;2023-03-14T11:19:01;15.10;60.40
46366;DHT22;32073;49.166;8.076;2023-03-14T11:28:01;14.70;60.40
46366;DHT22;32073;49.166;8.076;2023-03-14T11:32:19;14.40;60.10
46366;DHT22;32073;49.166;8.076;2023-03-14T11:40:51;14.00;60.00
46366;DHT22;32073;49.166;8.076;2023-03-14T11:44:55;13.80;60.00
46366;DHT22;32073;49.166;8.076;2023-03-14T11:54:00;13.60;60.20
46366;DHT22;32073;49.166;8.076;2023-03-14T11:58:33;13.50;60.40
46366;DHT22;32073;49.166;8.076;2023-03-14T12:07:18;13.40;60.10
46366;DHT22;32073;49.166;8.076;2023-03-14T12:15:47;13.30;59.90
46366;DHT22;32073;49.166;8.076;2023-03-14T12:20:21;13.20;59.00
46366;DHT22;32073;49.166;8.076;2023-03-14T12:24:26;13.30;59.40
46366;DHT22;32073;49.166;8.076;2023-03-14T12:28:32;13.30;59.20
46366;DHT22;32073;49.166;8.076;2023-03-14T12:32:33;13.50;59.20
46366;DHT22;32073;49.166;8.076;2023-03-14T12:45:31;13.70;58.30
46366;DHT22;32073;49.166;8.076;2023-03-14T12:49:35;13.70;56.10
46366;DHT22;32073;49.166;8.076;2023-03-14T13:06:52;13.80;53.80
46366;DHT22;32073;49.166;8.076;2023-03-14T13:10:54;13.80;53.00
46366;DHT22;32073;49.166;8.076;2023-03-14T13:14:58;13.90;53.00
46366;DHT22;32073;49.166;8.076;2023-03-14T13:19:03;13.90;53.00
46366;DHT22;32073;49.166;8.076;2023-03-14T13:23:27;14.00;53.10
46366;DHT22;32073;49.166;8.076;2023-03-14T13:27:34;14.10;52.80
46366;DHT22;32073;49.166;8.076;2023-03-14T13:31:35;14.20;51.90
46366;DHT22;32073;49.166;8.076;2023-03-14T13:35:45;14.30;51.50
46366;DHT22;32073;49.166;8.076;2023-03-14T13:39:51;14.30;50.60
46366;DHT22;32073;49.166;8.076;2023-03-14T13:44:13;14.30;50.80
46366;DHT22;32073;49.166;8.076;2023-03-14T13:48:17;14.30;49.90
46366;DHT22;32073;49.166;8.076;2023-03-14T13:52:37;14.30;49.00
46366;DHT22;32073;49.166;8.076;2023-03-14T13:56:38;14.30;49.40
46366;DHT22;32073;49.166;8.076;2023-03-14T14:00:39;14.40;48.80
46366;DHT22;32073;49.166;8.076;2023-03-14T14:04:40;14.40;48.10
46366;DHT22;32073;49.166;8.076;2023-03-14T14:08:41;14.40;48.00
46366;DHT22;32073;49.166;8.076;2023-03-14T14:13:03;14.40;47.10
46366;DHT22;32073;49.166;8.076;2023-03-14T14:17:10;14.40;46.90
46366;DHT22;32073;49.166;8.076;2023-03-14T14:21:13;14.40;47.00
46366;DHT22;32073;49.166;8.076;2023-03-14T14:25:14;14.40;46.80
46366;DHT22;32073;49.166;8.076;2023-03-14T14:33:28;14.40;46.40
46366;DHT22;32073;49.166;8.076;2023-03-14T14:37:32;14.30;46.00
46366;DHT22;32073;49.166;8.076;2023-03-14T14:41:35;14.40;46.60
46366;DHT22;32073;49.166;8.076;2023-03-14T14:45:42;14.50;46.90
46366;DHT22;32073;49.166;8.076;2023-03-14T14:49:43;14.60;46.40
46366;DHT22;32073;49.166;8.076;2023-03-14T14:53:44;14.70;46.90
46366;DHT22;32073;49.166;8.076;2023-03-14T14:57:53;14.80;45.30
46366;DHT22;32073;49.166;8.076;2023-03-14T15:02:01;14.80;45.80
46366;DHT22;32073;49.166;8.076;2023-03-14T15:06:04;14.80;45.80
46366;DHT22;32073;49.166;8.076;2023-03-14T15:10:05;14.80;45.00
46366;DHT22;32073;49.166;8.076;2023-03-14T15:14:06;14.70;45.00
46366;DHT22;32073;49.166;8.076;2023-03-14T15:18:18;14.60;45.20
46366;DHT22;32073;49.166;8.076;2023-03-14T15:22:18;14.50;45.20
46366;DHT22;32073;49.166;8.076;2023-03-14T15:26:23;14.40;45.40
46366;DHT22;32073;49.166;8.076;2023-03-14T15:30:25;14.30;45.50
46366;DHT22;32073;49.166;8.076;2023-03-14T15:34:25;14.20;45.40
46366;DHT22;32073;49.166;8.076;2023-03-14T15:38:27;14.00;45.70
46366;DHT22;32073;49.166;8.076;2023-03-14T15:42:28;13.90;46.00
46366;DHT22;32073;49.166;8.076;2023-03-14T15:46:29;13.90;46.00
46366;DHT22;32073;49.166;8.076;2023-03-14T15:50:29;13.80;46.10
46366;DHT22;32073;49.166;8.076;2023-03-14T15:54:30;13.80;46.10
46366;DHT22;32073;49.166;8.076;2023-03-14T15:58:31;13.80;46.30
46366;DHT22;32073;49.166;8.076;2023-03-14T16:02:34;13.70;46.00
46366;DHT22;32073;49.166;8.076;2023-03-14T16:06:34;13.70;45.90
46366;DHT22;32073;49.166;8.076;2023-03-14T16:10:36;13.60;45.70
46366;DHT22;32073;49.166;8.076;2023-03-14T16:14:38;13.60;46.00
46366;DHT22;32073;49.166;8.076;2023-03-14T16:18:42;13.50;45.90
46366;DHT22;32073;49.166;8.076;2023-03-14T16:22:43;13.50;45.90
46366;DHT22;32073;49.166;8.076;2023-03-14T16:26:44;13.40;45.70
46366;DHT22;32073;49.166;8.076;2023-03-14T16:30:46;13.50;45.90
46366;DHT22;32073;49.166;8.076;2023-03-14T16:34:47;13.30;46.10
46366;DHT22;32073;49.166;8.076;2023-03-14T16:38:48;13.20;46.00
46366;DHT22;32073;49.166;8.076;2023-03-14T16:42:48;13.10;46.20
46366;DHT22;32073;49.166;8.076;2023-03-14T16:46:49;13.10;46.40
46366;DHT22;32073;49.166;8.076;2023-03-14T16:50:50;13.00;46.60
46366;DHT22;32073;49.166;8.076;2023-03-14T16:54:51;13.00;46.70
46366;DHT22;32073;49.166;8.076;2023-03-14T16:58:51;13.00;47.40
46366;DHT22;32073;49.166;8.076;2023-03-14T17:02:52;12.90;46.90
46366;DHT22;32073;49.166;8.076;2023-03-14T17:06:53;12.90;47.00
46366;DHT22;32073;49.166;8.076;2023-03-14T17:10:53;12.80;47.00
46366;DHT22;32073;49.166;8.076;2023-03-14T17:14:54;12.80;47.30
46366;DHT22;32073;49.166;8.076;2023-03-14T17:18:57;12.80;47.40
46366;DHT22;32073;49.166;8.076;2023-03-14T17:22:58;12.70;47.40
46366;DHT22;32073;49.166;8.076;2023-03-14T17:26:58;12.70;47.70
46366;DHT22;32073;49.166;8.076;2023-03-14T17:31:12;12.60;47.70
46366;DHT22;32073;49.166;8.076;2023-03-14T17:35:17;12.70;47.70
46366;DHT22;32073;49.166;8.076;2023-03-14T17:39:17;12.60;47.70
46366;DHT22;32073;49.166;8.076;2023-03-14T17:43:18;12.60;47.80
46366;DHT22;32073;49.166;8.076;2023-03-14T17:47:19;12.50;47.80
46366;DHT22;32073;49.166;8.076;2023-03-14T17:51:20;12.40;48.00
46366;DHT22;32073;49.166;8.076;2023-03-14T17:55:20;12.30;48.10
46366;DHT22;32073;49.166;8.076;2023-03-14T17:59:21;12.30;48.20
46366;DHT22;32073;49.166;8.076;2023-03-14T18:03:21;12.10;48.20
46366;DHT22;32073;49.166;8.076;2023-03-14T18:07:22;12.00;48.40
46366;DHT22;32073;49.166;8.076;2023-03-14T18:11:24;11.90;48.60
46366;DHT22;32073;49.166;8.076;2023-03-14T18:15:25;11.80;48.80
46366;DHT22;32073;49.166;8.076;2023-03-14T18:19:26;11.70;48.90
46366;DHT22;32073;49.166;8.076;2023-03-14T18:23:26;11.60;49.00
46366;DHT22;32073;49.166;8.076;2023-03-14T18:27:27;11.60;49.30
46366;DHT22;32073;49.166;8.076;2023-03-14T18:31:28;11.50;49.40
46366;DHT22;32073;49.166;8.076;2023-03-14T18:35:29;11.50;49.60
46366;DHT22;32073;49.166;8.076;2023-03-14T18:39:30;11.40;50.00
46366;DHT22;32073;49.166;8.076;2023-03-14T18:43:30;11.40;50.50
46366;DHT22;32073;49.166;8.076;2023-03-14T18:47:31;11.40;50.80
46366;DHT22;32073;49.166;8.076;2023-03-14T18:51:35;11.40;50.90
46366;DHT22;32073;49.166;8.076;2023-03-14T18:55:35;11.30;50.90
46366;DHT22;32073;49.166;8.076;2023-03-14T18:59:36;11.30;50.70
46366;DHT22;32073;49.166;8.076;2023-03-14T19:03:37;11.20;50.70
46366;DHT22;32073;49.166;8.076;2023-03-14T19:07:38;11.00;50.70
46366;DHT22;32073;49.166;8.076;2023-03-14T19:11:39;11.00;50.90
46366;DHT22;32073;49.166;8.076;2023-03-14T19:15:40;10.90;50.90
46366;DHT22;32073;49.166;8.076;2023-03-14T19:19:42;10.80;51.30
46366;DHT22;32073;49.166;8.076;2023-03-14T19:23:43;10.70;51.40
46366;DHT22;32073;49.166;8.076;2023-03-14T19:27:48;10.70;51.50
46366;DHT22;32073;49.166;8.076;2023-03-14T19:31:48;10.60;51.50
46366;DHT22;32073;49.166;8.076;2023-03-14T19:35:49;10.60;51.80
46366;DHT22;32073;49.166;8.076;2023-03-14T19:39:50;10.60;52.10
46366;DHT22;32073;49.166;8.076;2023-03-14T19:43:51;10.60;52.30
46366;DHT22;32073;49.166;8.076;2023-03-14T19:47:52;10.60;52.60
46366;DHT22;32073;49.166;8.076;2023-03-14T19:51:53;10.70;52.90
46366;DHT22;32073;49.166;8.076;2023-03-14T19:55:53;10.70;52.80
46366;DHT22;32073;49.166;8.076;2023-03-14T19:59:56;10.80;52.80
46366;DHT22;32073;49.166;8.076;2023-03-14T20:04:00;10.80;52.70
46366;DHT22;32073;49.166;8.076;2023-03-14T20:08:07;10.90;52.80
46366;DHT22;32073;49.166;8.076;2023-03-14T20:12:08;10.90;52.70
46366;DHT22;32073;49.166;8.076;2023-03-14T20:16:08;10.80;52.70
46366;DHT22;32073;49.166;8.076;2023-03-14T20:20:10;10.90;52.70
46366;DHT22;32073;49.166;8.076;2023-03-14T20:24:11;10.90;52.70
46366;DHT22;32073;49.166;8.076;2023-03-14T20:28:12;10.80;52.70
46366;DHT22;32073;49.166;8.076;2023-03-14T20:32:12;10.80;52.80
46366;DHT22;32073;49.166;8.076;2023-03-14T20:36:13;10.90;53.00
46366;DHT22;32073;49.166;8.076;2023-03-14T20:40:14;10.80;53.50
46366;DHT22;32073;49.166;8.076;2023-03-14T20:44:15;10.70;53.60
46366;DHT22;32073;49.166;8.076;2023-03-14T20:48:16;10.50;53.80
46366;DHT22;32073;49.166;8.076;2023-03-14T20:52:16;10.10;53.50
46366;DHT22;32073;49.166;8.076;2023-03-14T20:56:17;9.60;53.90
46366;DHT22;32073;49.166;8.076;2023-03-14T21:00:18;9.20;54.00
46366;DHT22;32073;49.166;8.076;2023-03-14T21:04:20;8.80;54.80
46366;DHT22;32073;49.166;8.076;2023-03-14T21:08:22;8.60;54.90
46366;DHT22;32073;49.166;8.076;2023-03-14T21:12:23;8.50;55.20
46366;DHT22;32073;49.166;8.076;2023-03-14T21:16:24;8.30;55.30
46366;DHT22;32073;49.166;8.076;2023-03-14T21:20:25;8.20;55.40
46366;DHT22;32073;49.166;8.076;2023-03-14T21:24:26;8.20;55.50
46366;DHT22;32073;49.166;8.076;2023-03-14T21:28:28;8.20;55.70
46366;DHT22;32073;49.166;8.076;2023-03-14T21:32:28;8.20;55.80
46366;DHT22;32073;49.166;8.076;2023-03-14T21:36:29;8.20;55.60
46366;DHT22;32073;49.166;8.076;2023-03-14T21:40:31;8.30;55.60
46366;DHT22;32073;49.166;8.076;2023-03-14T21:44:32;8.10;55.40
46366;DHT22;32073;49.166;8.076;2023-03-14T21:48:36;8.20;55.50
46366;DHT22;32073;49.166;8.076;2023-03-14T21:52:37;8.20;55.40
46366;DHT22;32073;49.166;8.076;2023-03-14T21:56:38;8.30;55.40
46366;DHT22;32073;49.166;8.076;2023-03-14T22:00:39;8.30;55.40
46366;DHT22;32073;49.166;8.076;2023-03-14T22:04:48;8.40;55.50
46366;DHT22;32073;49.166;8.076;2023-03-14T22:08:48;8.40;55.50
46366;DHT22;32073;49.166;8.076;2023-03-14T22:12:49;8.50;55.60
46366;DHT22;32073;49.166;8.076;2023-03-14T22:16:51;8.70;55.70
46366;DHT22;32073;49.166;8.076;2023-03-14T22:20:52;8.70;55.70
46366;DHT22;32073;49.166;8.076;2023-03-14T22:24:53;8.70;55.60
46366;DHT22;32073;49.166;8.076;2023-03-14T22:28:54;8.80;55.60
46366;DHT22;32073;49.166;8.076;2023-03-14T22:32:54;8.90;55.40
46366;DHT22;32073;49.166;8.076;2023-03-14T22:36:59;8.90;55.40
46366;DHT22;32073;49.166;8.076;2023-03-14T22:41:01;9.00;55.50
46366;DHT22;32073;49.166;8.076;2023-03-14T22:45:02;8.90;55.40
46366;DHT22;32073;49.166;8.076;2023-03-14T22:49:03;9.00;55.40
46366;DHT22;32073;49.166;8.076;2023-03-14T22:53:03;9.00;55.50
46366;DHT22;32073;49.166;8.076;2023-03-14T22:57:04;9.00;55.70
46366;DHT22;32073;49.166;8.076;2023-03-14T23:01:05;9.00;55.70
46366;DHT22;32073;49.166;8.076;2023-03-14T23:05:06;9.10;55.70
46366;DHT22;32073;49.166;8.076;2023-03-14T23:09:07;9.10;55.20
46366;DHT22;32073;49.166;8.076;2023-03-14T23:13:09;9.10;55.20
46366;DHT22;32073;49.166;8.076;2023-03-14T23:17:13;9.10;54.90
46366;DHT22;32073;49.166;8.076;2023-03-14T23:21:16;9.00;54.70
46366;DHT22;32073;49.166;8.076;2023-03-14T23:25:18;9.00;54.50
46366;DHT22;32073;49.166;8.076;2023-03-14T23:29:19;9.00;54.40
46366;DHT22;32073;49.166;8.076;2023-03-14T23:33:20;8.90;54.50
46366;DHT22;32073;49.166;8.076;2023-03-14T23:37:21;8.80;54.50
46366;DHT22;32073;49.166;8.076;2023-03-14T23:41:22;8.80;54.70
46366;DHT22;32073;49.166;8.076;2023-03-14T23:45:23;8.80;54.80
46366;DHT22;32073;49.166;8.076;2023-03-14T23:49:23;8.80;54.80
46366;DHT22;32073;49.166;8.076;2023-03-14T23:53:25;8.70;54.70
46366;DHT22;32073;49.166;8.076;2023-03-14T23:57:27;8.70;54.70
